| time (UTC) | temp F | wind direction | speed knots | gust knots | rain 1hr in | rain 24hr in | rain mn in | humidity % | barometer mb |
| 20260906164520 | 98 | 89 | 0.0 | 1.7 | 0.00 | 0.01 | 0.00 | 46 | 1017.1 |
| 20260906163024 | 95 | 148 | 1.7 | 8.7 | 0.00 | 0.01 | 0.00 | 50 | 1017.3 |
| 20260906161525 | 94 | 67 | 0.9 | 5.2 | 0.00 | 0.01 | 0.00 | 53 | 1017.3 |
| 20260906160032 | 93 | 209 | 1.7 | 6.1 | 0.00 | 0.01 | 0.00 | 53 | 1017.2 |
| 20260906154511 | 92 | 116 | 0.9 | 6.1 | 0.00 | 0.01 | 0.00 | 56 | 1017.1 |
| 20260906153003 | 91 | 210 | 1.7 | 4.3 | 0.00 | 0.01 | 0.00 | 58 | 1017.2 |
| 20260906151504 | 90 | 167 | 2.6 | 7.8 | 0.00 | 0.01 | 0.00 | 59 | 1017.0 |
| 20260906150007 | 90 | 205 | 1.7 | 6.1 | 0.00 | 0.01 | 0.00 | 60 | 1017.0 |
| 20260906144510 | 88 | 193 | 1.7 | 5.2 | 0.00 | 0.01 | 0.00 | 61 | 1017.0 |
| 20260906143015 | 88 | 280 | 0.0 | 0.0 | 0.00 | 0.01 | 0.00 | 63 | 1016.9 |
| 20260906141514 | 86 | 1 | 0.0 | 0.0 | 0.00 | 0.01 | 0.00 | 66 | 1016.9 |
| 20260906140004 | 85 | 318 | 0.0 | 0.0 | 0.00 | 0.01 | 0.00 | 66 | 1016.8 |
| 20260906134506 | 83 | 199 | 0.0 | 0.0 | 0.00 | 0.01 | 0.00 | 69 | 1016.8 |
| 20260906133012 | 82 | 330 | 0.0 | 0.0 | 0.00 | 0.01 | 0.00 | 71 | 1016.8 |
| 20260906131516 | 80 | 289 | 0.0 | 0.0 | 0.00 | 0.01 | 0.00 | 74 | 1016.8 |
| 20260906130004 | 79 | 119 | 0.0 | 0.0 | 0.00 | 0.01 | 0.00 | 76 | 1016.8 |
| 20260906124505 | 76 | 113 | 0.0 | 0.0 | 0.00 | 0.01 | 0.00 | 79 | 1016.7 |
| 20260906123010 | 73 | 113 | 0.0 | 0.0 | 0.00 | 0.01 | 0.00 | 85 | 1016.5 |
| 20260906121512 | 71 | 113 | 0.0 | 0.0 | 0.00 | 0.01 | 0.00 | 89 | 1016.2 |
| 20260906120025 | 70 | 113 | 0.0 | 0.0 | 0.00 | 0.01 | 0.00 | 89 | 1016.1 |
| 20260906114505 | 69 | 113 | 0.0 | 0.0 | 0.00 | 0.01 | 0.00 | 91 | 1015.9 |
| 20260906113004 | 69 | 113 | 0.0 | 0.0 | 0.00 | 0.01 | 0.00 | 90 | 1015.8 |
| 20260906111510 | 69 | 113 | 0.0 | 0.0 | 0.00 | 0.01 | 0.00 | 90 | 1015.7 |
| 20260906110022 | 69 | 113 | 0.0 | 0.0 | 0.00 | 0.01 | 0.00 | 89 | 1015.7 |
| 20260906104527 | 70 | 113 | 0.0 | 0.0 | 0.00 | 0.01 | 0.00 | 88 | 1015.7 |
| 20260906103013 | 70 | 113 | 0.0 | 0.0 | 0.00 | 0.01 | 0.00 | 88 | 1015.6 |
| 20260906101511 | 70 | 113 | 0.0 | 0.0 | 0.00 | 0.01 | 0.00 | 87 | 1015.6 |
| 20260906100026 | 71 | 113 | 0.0 | 0.0 | 0.00 | 0.01 | 0.00 | 86 | 1015.4 |
| 20260906094524 | 71 | 113 | 0.0 | 0.0 | 0.00 | 0.01 | 0.00 | 85 | 1015.3 |
| 20260906093026 | 72 | 113 | 0.0 | 0.0 | 0.00 | 0.01 | 0.00 | 84 | 1015.1 |
| 20260906091509 | 73 | 113 | 0.0 | 0.0 | 0.00 | 0.01 | 0.00 | 83 | 1015.1 |
| 20260906090016 | 73 | 113 | 0.0 | 0.0 | 0.00 | 0.01 | 0.00 | 81 | 1015.1 |
| 20260906084522 | 74 | 113 | 0.0 | 0.0 | 0.00 | 0.01 | 0.00 | 80 | 1015.1 |
| 20260906083024 | 75 | 113 | 0.0 | 0.0 | 0.00 | 0.01 | 0.00 | 77 | 1015.0 |
| 20260906081526 | 76 | 113 | 0.0 | 0.0 | 0.00 | 0.01 | 0.00 | 76 | 1015.0 |
| 20260906080012 | 76 | 113 | 0.0 | 0.0 | 0.00 | 0.01 | 0.00 | 75 | 1015.0 |
| 20260906074516 | 76 | 113 | 0.0 | 0.0 | 0.00 | 0.01 | 0.00 | 76 | 1015.0 |
| 20260906073024 | 74 | 113 | 0.0 | 0.0 | 0.00 | 0.01 | 0.00 | 78 | 1015.2 |
| 20260906071525 | 74 | 113 | 0.0 | 0.0 | 0.00 | 0.01 | 0.00 | 79 | 1015.3 |
| 20260906070032 | 74 | 113 | 0.0 | 0.0 | 0.00 | 0.01 | 0.00 | 80 | 1015.3 |
| 20260906064509 | 73 | 113 | 0.0 | 0.0 | 0.00 | 0.01 | 0.00 | 81 | 1015.4 |
| 20260906063018 | 73 | 113 | 0.0 | 0.0 | 0.00 | 0.01 | 0.00 | 82 | 1015.5 |
| 20260906061512 | 74 | 113 | 0.0 | 0.0 | 0.00 | 0.01 | 0.00 | 82 | 1015.5 |
| 20260906060006 | 74 | 113 | 0.0 | 0.0 | 0.00 | 0.01 | 0.00 | 81 | 1015.7 |
| 20260906054523 | 74 | 113 | 0.0 | 0.0 | 0.00 | 0.01 | 0.00 | 81 | 1015.6 |
| 20260906053014 | 75 | 113 | 0.0 | 0.0 | 0.00 | 0.01 | 0.00 | 80 | 1015.5 |
| 20260906051504 | 76 | 113 | 0.0 | 0.0 | 0.00 | 0.01 | 0.00 | 79 | 1015.5 |
| 20260906050006 | 76 | 113 | 0.0 | 0.0 | 0.00 | 0.01 | 0.00 | 77 | 1015.5 |
| 20260906044508 | 76 | 113 | 0.0 | 0.0 | 0.00 | 0.01 | 0.01 | 77 | 1015.4 |
| 20260906043021 | 77 | 113 | 0.0 | 0.0 | 0.00 | 0.01 | 0.01 | 75 | 1015.7 |
| 20260906041519 | 77 | 113 | 0.0 | 0.0 | 0.00 | 0.01 | 0.01 | 76 | 1015.7 |
| 20260906040004 | 78 | 113 | 0.0 | 0.0 | 0.00 | 0.01 | 0.01 | 74 | 1015.5 |
| 20260906034505 | 78 | 113 | 0.0 | 0.0 | 0.00 | 0.01 | 0.01 | 74 | 1015.6 |
| 20260906033009 | 80 | 113 | 0.0 | 0.0 | 0.00 | 0.01 | 0.01 | 71 | 1015.4 |
| 20260906031514 | 80 | 113 | 0.0 | 0.0 | 0.00 | 0.01 | 0.01 | 67 | 1015.4 |
| 20260906030019 | 80 | 113 | 0.0 | 0.0 | 0.00 | 0.01 | 0.01 | 69 | 1015.2 |
| 20260906024504 | 80 | 113 | 0.0 | 0.0 | 0.00 | 0.01 | 0.01 | 68 | 1015.0 |
| 20260906023004 | 80 | 113 | 0.0 | 0.0 | 0.00 | 0.01 | 0.01 | 68 | 1014.8 |
| 20260906021520 | 81 | 113 | 0.0 | 0.0 | 0.00 | 0.01 | 0.01 | 68 | 1014.8 |
| 20260906020020 | 82 | 113 | 0.0 | 0.0 | 0.00 | 0.01 | 0.01 | 64 | 1014.4 |
| 20260906014528 | 82 | 113 | 0.0 | 0.0 | 0.00 | 0.01 | 0.01 | 64 | 1014.2 |
| 20260906013010 | 83 | 113 | 0.0 | 0.0 | 0.00 | 0.01 | 0.01 | 63 | 1014.3 |
| 20260906011509 | 82 | 125 | 0.0 | 0.0 | 0.00 | 0.01 | 0.01 | 64 | 1014.2 |
| 20260906010016 | 83 | 125 | 0.0 | 0.9 | 0.00 | 0.01 | 0.01 | 62 | 1014.2 |
| 20260906004521 | 85 | 89 | 0.9 | 5.2 | 0.00 | 0.01 | 0.01 | 61 | 1014.1 |
| 20260906003025 | 86 | 87 | 0.0 | 6.1 | 0.00 | 0.01 | 0.01 | 60 | 1014.5 |
| 20260906001506 | 86 | 221 | 5.2 | 12.2 | 0.00 | 0.01 | 0.01 | 60 | 1014.5 |
| 20260906000010 | 85 | 232 | 5.2 | 11.3 | 0.01 | 0.01 | 0.01 | 73 | 1014.5 |
| 20260905234515 | 84 | 117 | 0.0 | 0.0 | 0.01 | 0.01 | 0.01 | 76 | 1014.0 |
| 20260905233024 | 84 | 117 | 0.0 | 1.7 | 0.01 | 0.01 | 0.01 | 75 | 1013.9 |
| 20260905231530 | 84 | 105 | 0.0 | 5.2 | 0.01 | 0.01 | 0.01 | 68 | 1013.9 |
| 20260905230016 | 91 | 106 | 3.5 | 12.2 | 0.00 | 0.00 | 0.00 | 53 | 1014.0 |
| 20260905224515 | 97 | 297 | 1.7 | 3.5 | 0.00 | 0.00 | 0.00 | 42 | 1013.9 |
| 20260905223020 | 97 | 77 | 0.9 | 2.6 | 0.00 | 0.00 | 0.00 | 43 | 1013.6 |
| 20260905221504 | 98 | 182 | 3.5 | 9.6 | 0.00 | 0.00 | 0.00 | 41 | 1013.7 |
| 20260905220006 | 100 | 100 | 0.9 | 3.5 | 0.00 | 0.00 | 0.00 | 39 | 1013.6 |
| 20260905214511 | 101 | 333 | 1.7 | 3.5 | 0.00 | 0.00 | 0.00 | 39 | 1013.8 |
| 20260905213016 | 101 | 188 | 1.7 | 4.3 | 0.00 | 0.00 | 0.00 | 39 | 1013.7 |
| 20260905211523 | 101 | 167 | 3.5 | 7.8 | 0.00 | 0.00 | 0.00 | 39 | 1014.0 |
| 20260905210007 | 102 | 121 | 0.9 | 5.2 | 0.00 | 0.00 | 0.00 | 38 | 1014.2 |
| 20260905204509 | 102 | 64 | 0.9 | 2.6 | 0.00 | 0.00 | 0.00 | 36 | 1014.4 |
| 20260905203012 | 101 | 63 | 0.0 | 3.5 | 0.00 | 0.00 | 0.00 | 38 | 1014.6 |
| 20260905201520 | 101 | 27 | 0.9 | 5.2 | 0.00 | 0.00 | 0.00 | 37 | 1014.8 |
| 20260905200032 | 100 | 65 | 1.7 | 5.2 | 0.00 | 0.00 | 0.00 | 38 | 1015.0 |
| 20260905194507 | 99 | 65 | 2.6 | 5.2 | 0.00 | 0.00 | 0.00 | 39 | 1015.3 |
| 20260905193005 | 99 | 95 | 1.7 | 3.5 | 0.00 | 0.00 | 0.00 | 40 | 1015.5 |
| 20260905191514 | 97 | 265 | 1.7 | 5.2 | 0.00 | 0.00 | 0.00 | 44 | 1015.6 |
| 20260905190038 | 95 | 115 | 0.0 | 3.5 | 0.00 | 0.00 | 0.00 | 46 | 1015.9 |
| 20260905184536 | 96 | 76 | 0.9 | 5.2 | 0.00 | 0.00 | 0.00 | 46 | 1016.2 |
| 20260905183003 | 99 | 95 | 0.9 | 5.2 | 0.00 | 0.00 | 0.00 | 44 | 1016.2 |
| 20260905181512 | 100 | 271 | 3.5 | 6.1 | 0.00 | 0.00 | 0.00 | 43 | 1016.4 |
| 20260905180021 | 98 | 105 | 0.9 | 3.5 | 0.00 | 0.00 | 0.00 | 43 | 1016.7 |
| 20260905174527 | 97 | 100 | 0.9 | 3.5 | 0.00 | 0.00 | 0.00 | 45 | 1017.0 |
| 20260905173027 | 98 | 117 | 1.7 | 4.3 | 0.00 | 0.00 | 0.00 | 47 | 1017.1 |
| 20260905171508 | 97 | 81 | 0.9 | 4.3 | 0.00 | 0.00 | 0.00 | 48 | 1017.3 |
| 20260905170012 | 96 | 72 | 0.9 | 3.5 | 0.00 | 0.00 | 0.00 | 49 | 1017.4 |